Time;durP1;ratioP1;P1;durP2;ratioP2;P2;SDS_P1;SDS_P2;PMS_P1;PMS_P2;Temp;Humidity;BMP_temperature;BMP_pressure;BME280_temperature;BME280_humidity;BME280_pressure;Samples;Min_cycle;Max_cycle;Signal;HPM_P1;HPM_P2
2023/03/20 00:01:28;;;;;;;25.50;15.60;;;3.60;99.90;;;;;;4975989;28;20046;-62
2023/03/20 00:03:56;;;;;;;28.50;16.75;;;3.60;99.90;;;;;;4978572;28;20137;-65
2023/03/20 00:06:25;;;;;;;25.42;14.13;;;3.60;99.90;;;;;;4972245;28;20061;-65
2023/03/20 00:08:56;;;;;;;20.92;13.05;;;3.50;99.90;;;;;;4976103;28;20191;-63
2023/03/20 00:11:27;;;;;;;26.10;16.00;;;3.50;99.90;;;;;;4972204;28;20121;-68
2023/03/20 00:13:57;;;;;;;26.75;13.77;;;3.50;99.90;;;;;;4977748;28;20063;-66
2023/03/20 00:16:30;;;;;;;26.40;15.35;;;3.50;99.90;;;;;;4973224;28;20519;-68
2023/03/20 00:18:58;;;;;;;26.30;15.27;;;3.50;99.90;;;;;;4971736;28;20043;-63
2023/03/20 00:21:25;;;;;;;31.92;14.93;;;3.50;99.90;;;;;;4970747;28;20050;-67
2023/03/20 00:23:53;;;;;;;25.13;16.23;;;3.50;99.90;;;;;;4971595;28;20046;-66
2023/03/20 00:26:25;;;;;;;28.83;16.15;;;3.50;99.90;;;;;;4977788;28;20085;-64
2023/03/20 00:28:52;;;;;;;27.90;14.18;;;3.50;99.90;;;;;;4983312;28;20056;-62
2023/03/20 00:31:28;;;;;;;40.92;13.80;;;3.40;99.90;;;;;;4978902;28;20081;-63
2023/03/20 00:33:59;;;;;;;35.47;13.40;;;3.40;99.90;;;;;;5000261;28;20113;-63
2023/03/20 00:36:26;;;;;;;;;;;3.40;99.90;;;;;;4979980;28;20196;-64
2023/03/20 00:38:55;;;;;;;26.50;14.73;;;3.40;99.90;;;;;;4978976;28;20386;-66
2023/03/20 00:42:00;;;;;;;27.10;12.50;;;3.40;99.90;;;;;;4983782;28;20698;-65
2023/03/20 00:44:39;;;;;;;24.90;13.85;;;3.40;99.90;;;;;;4979632;28;20046;-63
2023/03/20 00:48:02;;;;;;;29.65;13.88;;;3.30;99.90;;;;;;4980843;28;20383;-66
2023/03/20 00:51:45;;;;;;;24.85;11.60;;;3.30;99.90;;;;;;4974027;28;20783;-65
2023/03/20 00:55:53;;;;;;;20.00;10.75;;;3.30;99.90;;;;;;4976783;28;20137;-66
2023/03/20 01:00:00;;;;;;;21.38;11.52;;;3.20;99.90;;;;;;4973836;28;20073;-64
2023/03/20 01:04:07;;;;;;;19.08;10.13;;;3.10;99.90;;;;;;4971901;28;20357;-64
2023/03/20 01:08:13;;;;;;;19.45;10.77;;;3.10;99.90;;;;;;4968883;28;20097;-64
2023/03/20 01:12:19;;;;;;;22.83;10.48;;;3.00;99.90;;;;;;4973321;28;20045;-66
2023/03/20 01:16:25;;;;;;;15.93;10.68;;;3.00;99.90;;;;;;4970577;28;20130;-68
2023/03/20 01:20:31;;;;;;;17.30;11.52;;;3.00;99.90;;;;;;4955839;28;20166;-66
2023/03/20 01:24:37;;;;;;;20.50;11.43;;;3.00;99.90;;;;;;4964419;28;20050;-65
2023/03/20 13:36:04;;;;;;;26.08;17.40;;;7.40;99.90;;;;;;4853776;23;20388;-68
2023/03/20 13:38:40;;;;;;;30.20;18.30;;;7.40;99.90;;;;;;4818713;29;20057;-66
2023/03/20 13:41:09;;;;;;;30.98;18.20;;;7.50;99.90;;;;;;4805199;29;20534;-69
2023/03/20 13:43:46;;;;;;;30.10;20.58;;;7.50;99.90;;;;;;4802885;29;20717;-66
2023/03/20 13:46:25;;;;;;;30.98;18.95;;;7.60;99.90;;;;;;4808092;29;20192;-70
2023/03/20 13:48:54;;;;;;;29.63;19.55;;;7.60;99.90;;;;;;4801480;29;20661;-63
2023/03/20 13:51:38;;;;;;;28.38;18.90;;;7.60;99.90;;;;;;4803931;29;20181;-64
2023/03/20 13:54:30;;;;;;;25.40;17.33;;;7.60;99.90;;;;;;4806088;29;20130;-68
2023/03/20 13:57:12;;;;;;;26.15;18.98;;;7.70;99.90;;;;;;4823265;29;20156;-66
2023/03/20 14:00:21;;;;;;;24.08;16.42;;;7.80;99.90;;;;;;4825887;29;20110;-67
2023/03/20 14:03:25;;;;;;;25.70;16.33;;;7.80;99.90;;;;;;4803555;29;20054;-66
2023/03/20 14:05:51;;;;;;;30.77;16.90;;;7.80;99.90;;;;;;4804424;29;20054;-69
2023/03/20 14:08:21;;;;;;;23.65;18.33;;;7.80;99.90;;;;;;4809453;29;20081;-67
2023/03/20 14:10:55;;;;;;;28.88;16.33;;;7.80;99.90;;;;;;4807856;29;20151;-65
2023/03/20 14:13:22;;;;;;;23.90;15.75;;;7.80;99.90;;;;;;4806103;29;20095;-66
2023/03/20 14:15:56;;;;;;;26.37;14.40;;;7.80;99.90;;;;;;4804021;29;20119;-67
2023/03/20 14:18:25;;;;;;;22.73;15.68;;;7.80;99.90;;;;;;4808657;29;20153;-64
2023/03/20 14:21:08;;;;;;;23.90;15.02;;;7.80;99.90;;;;;;4801254;29;20070;-67
2023/03/20 14:23:41;;;;;;;23.10;14.73;;;7.80;99.90;;;;;;4809426;29;20066;-64
2023/03/20 14:26:30;;;;;;;19.02;14.63;;;7.80;99.90;;;;;;4801946;29;20146;-70
2023/03/20 14:29:09;;;;;;;20.95;15.07;;;7.80;99.90;;;;;;4807255;29;20073;-66
2023/03/20 14:31:41;;;;;;;23.20;15.27;;;7.80;99.90;;;;;;4804111;29;20059;-68
2023/03/20 14:34:15;;;;;;;21.27;14.63;;;7.70;99.90;;;;;;4799374;29;20841;-66
2023/03/20 14:36:51;;;;;;;20.35;15.00;;;7.70;99.90;;;;;;4816398;29;20223;-69
2023/03/20 14:39:36;;;;;;;21.02;15.52;;;7.70;99.90;;;;;;4821000;29;20050;-64
2023/03/20 14:42:39;;;;;;;14.05;12.10;;;7.70;99.90;;;;;;4823218;29;20050;-69
2023/03/20 14:45:12;;;;;;;16.30;11.35;;;7.60;99.90;;;;;;4820284;29;20057;-67
2023/03/20 14:48:00;;;;;;;16.45;10.13;;;7.60;99.90;;;;;;4820094;29;20046;-67
2023/03/20 14:50:33;;;;;;;14.27;9.45;;;7.60;99.90;;;;;;4822945;29;20547;-69
2023/03/20 14:53:15;;;;;;;11.32;8.70;;;7.60;99.90;;;;;;4818825;29;20480;-64
2023/03/20 14:55:48;;;;;;;11.60;8.35;;;7.60;99.90;;;;;;4823091;29;20081;-66
2023/03/20 14:58:34;;;;;;;12.18;9.88;;;7.60;99.90;;;;;;4814314;29;20223;-64
2023/03/20 15:01:03;;;;;;;14.13;10.45;;;7.60;99.90;;;;;;4821512;29;20130;-70
2023/03/20 15:03:31;;;;;;;11.48;9.13;;;7.50;99.90;;;;;;4828316;29;20049;-63
2023/03/20 15:06:03;;;;;;;9.80;8.77;;;7.50;99.90;;;;;;4820197;29;20126;-65
2023/03/20 15:08:34;;;;;;;14.05;9.10;;;7.40;99.90;;;;;;4824659;29;20053;-64
2023/03/20 15:11:07;;;;;;;11.80;8.73;;;7.30;99.90;;;;;;4822302;29;20133;-65
2023/03/20 15:13:36;;;;;;;11.55;9.45;;;7.20;99.90;;;;;;4820523;29;20575;-66
2023/03/20 15:16:08;;;;;;;13.60;8.90;;;7.20;99.90;;;;;;4821784;29;20431;-64
2023/03/20 15:18:45;;;;;;;15.13;10.70;;;7.10;99.90;;;;;;4820298;29;20443;-64
2023/03/20 15:21:13;;;;;;;14.80;10.50;;;7.00;99.90;;;;;;4822680;29;20066;-64
2023/03/20 15:23:42;;;;;;;12.45;9.60;;;6.90;99.90;;;;;;4826743;29;20057;-67
2023/03/20 15:26:10;;;;;;;9.40;8.48;;;6.80;99.90;;;;;;4823340;29;20202;-64
2023/03/20 15:28:37;;;;;;;14.10;10.65;;;6.80;99.90;;;;;;4825045;29;20057;-67
2023/03/20 15:31:05;;;;;;;11.55;9.70;;;6.70;99.90;;;;;;4844611;29;20057;-66
2023/03/20 15:33:41;;;;;;;21.10;15.38;;;6.60;99.90;;;;;;4843396;29;20079;-63
2023/03/20 15:36:14;;;;;;;35.75;24.10;;;6.50;99.90;;;;;;4833654;29;20076;-63
2023/03/20 15:38:43;;;;;;;16.80;15.00;;;6.40;99.90;;;;;;4825785;29;20061;-68
2023/03/20 15:41:33;;;;;;;14.20;9.10;;;6.40;99.90;;;;;;4826930;29;20045;-69
2023/03/20 15:44:31;;;;;;;11.10;8.80;;;6.40;99.90;;;;;;4826421;29;20118;-67
2023/03/20 15:47:21;;;;;;;9.00;8.07;;;6.30;99.90;;;;;;4818843;29;20054;-66
2023/03/20 15:49:54;;;;;;;10.27;8.45;;;6.20;99.90;;;;;;4823691;29;20046;-70
2023/03/20 15:52:40;;;;;;;12.65;8.15;;;6.20;99.90;;;;;;4825414;29;20070;-67
2023/03/20 15:55:16;;;;;;;9.60;6.63;;;6.20;99.90;;;;;;4827355;29;20130;-64
2023/03/20 15:57:46;;;;;;;8.38;7.45;;;6.10;99.90;;;;;;4831068;29;20118;-68
2023/03/20 16:00:22;;;;;;;12.90;7.23;;;6.00;99.90;;;;;;4827650;29;20560;-65
2023/03/20 16:02:49;;;;;;;9.45;7.18;;;6.00;99.90;;;;;;4824735;29;20053;-65
2023/03/20 16:05:19;;;;;;;7.97;7.10;;;6.00;99.90;;;;;;4824915;29;20057;-63
2023/03/20 16:07:46;;;;;;;7.45;6.70;;;5.90;99.90;;;;;;4829328;29;20063;-68
2023/03/20 16:10:44;;;;;;;10.43;9.40;;;5.90;99.90;;;;;;4826785;29;20063;-64
2023/03/20 16:13:18;;;;;;;16.20;11.90;;;5.80;99.90;;;;;;4824069;29;20148;-67
2023/03/20 16:15:45;;;;;;;14.30;12.90;;;5.80;99.90;;;;;;4824214;29;20053;-70
2023/03/20 16:18:16;;;;;;;12.43;11.13;;;5.80;99.90;;;;;;4829784;29;20054;-64
2023/03/20 16:21:06;;;;;;;16.33;13.73;;;5.80;99.90;;;;;;4824265;29;20058;-66
2023/03/20 16:23:37;;;;;;;23.40;15.50;;;5.80;99.90;;;;;;4823713;29;20085;-68
2023/03/20 16:26:07;;;;;;;15.65;12.45;;;5.90;99.90;;;;;;4825711;29;20060;-67
2023/03/20 16:28:36;;;;;;;12.98;9.43;;;5.90;99.90;;;;;;4826845;29;20057;-66
2023/03/20 16:31:15;;;;;;;15.88;14.35;;;5.90;99.90;;;;;;4825010;29;20057;-66
2023/03/20 16:33:44;;;;;;;8.75;7.70;;;5.90;99.90;;;;;;4826917;29;20137;-67
2023/03/20 16:36:17;;;;;;;8.85;8.18;;;5.90;99.90;;;;;;4827743;29;20068;-69
2023/03/20 16:39:00;;;;;;;6.00;5.40;;;5.90;99.90;;;;;;4844948;29;20070;-66
2023/03/20 16:41:29;;;;;;;6.85;4.07;;;5.90;99.90;;;;;;4849941;29;20125;-70
2023/03/20 16:43:56;;;;;;;6.38;4.50;;;5.80;99.90;;;;;;4846329;29;20133;-65
2023/03/20 16:46:25;;;;;;;3.83;3.42;;;5.80;99.90;;;;;;4845103;29;20061;-67
2023/03/20 16:49:33;;;;;;;5.30;4.80;;;5.80;99.90;;;;;;4843355;29;20060;-66
2023/03/20 16:52:10;;;;;;;4.55;4.10;;;5.80;99.90;;;;;;4844733;29;20466;-66
2023/03/20 16:54:37;;;;;;;6.97;5.28;;;5.80;99.90;;;;;;4845706;29;20159;-65
2023/03/20 16:57:13;;;;;;;5.20;4.80;;;5.80;99.90;;;;;;4849243;29;20041;-64
2023/03/20 16:59:40;;;;;;;4.13;3.58;;;5.80;99.90;;;;;;4847448;29;20327;-66
2023/03/20 17:02:39;;;;;;;3.95;3.65;;;5.80;99.90;;;;;;4842195;29;20148;-64
2023/03/20 17:05:12;;;;;;;3.35;3.15;;;5.80;99.90;;;;;;4841461;29;20069;-66
2023/03/20 17:07:40;;;;;;;4.53;4.13;;;5.80;99.90;;;;;;4843902;29;20097;-68
2023/03/20 17:10:20;;;;;;;4.07;3.67;;;5.90;99.90;;;;;;4849451;29;20116;-67
2023/03/20 17:12:49;;;;;;;3.03;2.80;;;5.90;99.90;;;;;;4846983;29;20080;-69
2023/03/20 17:15:22;;;;;;;2.67;2.47;;;5.80;99.90;;;;;;4840099;29;20119;-66
2023/03/20 17:17:50;;;;;;;2.22;2.13;;;5.80;99.90;;;;;;4842044;29;20057;-64
2023/03/20 17:20:23;;;;;;;5.07;2.70;;;5.90;99.90;;;;;;4845178;29;20144;-64
2023/03/20 17:22:50;;;;;;;3.08;2.58;;;5.90;99.90;;;;;;4845564;29;20145;-70
2023/03/20 17:25:18;;;;;;;2.63;2.42;;;5.80;99.90;;;;;;4850389;29;20083;-65
2023/03/20 17:27:46;;;;;;;2.58;2.33;;;5.80;99.90;;;;;;4847127;29;20053;-69
2023/03/20 17:30:19;;;;;;;2.60;2.40;;;5.80;99.90;;;;;;4848463;29;20071;-66
2023/03/20 17:32:47;;;;;;;3.08;2.78;;;5.80;99.90;;;;;;4849621;29;20685;-64
2023/03/20 17:35:14;;;;;;;21.70;17.23;;;5.80;99.90;;;;;;4846473;29;20058;-64
2023/03/20 17:37:41;;;;;;;9.68;7.90;;;5.70;99.90;;;;;;4827252;29;20058;-63
2023/03/20 17:40:24;;;;;;;7.30;6.68;;;5.70;99.90;;;;;;4835119;29;20064;-66
2023/03/20 17:42:50;;;;;;;8.02;7.20;;;5.70;99.90;;;;;;4829609;29;20181;-67
2023/03/20 17:45:17;;;;;;;4.25;3.85;;;5.70;99.90;;;;;;4830166;29;20057;-65
2023/03/20 17:47:47;;;;;;;3.80;3.50;;;5.60;99.90;;;;;;4825343;29;20149;-64
2023/03/20 17:50:19;;;;;;;5.35;4.63;;;5.60;99.90;;;;;;4825635;29;20066;-67
2023/03/20 17:52:46;;;;;;;6.25;4.35;;;5.60;99.90;;;;;;4827221;29;20049;-70
2023/03/20 17:55:14;;;;;;;4.38;3.97;;;5.60;99.90;;;;;;4828012;29;20061;-65
2023/03/20 17:57:42;;;;;;;4.88;4.47;;;5.50;99.90;;;;;;4826388;29;20057;-65
2023/03/20 18:00:27;;;;;;;4.05;3.72;;;5.50;99.90;;;;;;4827033;29;20054;-65
2023/03/20 18:02:54;;;;;;;3.60;3.30;;;5.50;99.90;;;;;;4824626;29;20061;-67
2023/03/20 18:05:21;;;;;;;6.50;6.00;;;5.50;99.90;;;;;;4829453;29;20055;-66
2023/03/20 18:07:48;;;;;;;3.08;2.78;;;5.50;99.90;;;;;;4811012;29;20053;-65
2023/03/20 18:10:30;;;;;;;7.13;6.53;;;5.60;99.90;;;;;;4828814;29;20066;-65
2023/03/20 18:12:58;;;;;;;3.75;3.45;;;5.70;99.90;;;;;;4826851;29;20073;-66
2023/03/20 18:15:25;;;;;;;3.13;2.22;;;5.70;99.90;;;;;;4829471;29;20053;-65
2023/03/20 18:17:52;;;;;;;8.18;7.47;;;5.70;99.90;;;;;;4825938;29;20046;-71
2023/03/20 18:20:24;;;;;;;4.38;3.10;;;5.70;99.90;;;;;;4827948;29;20060;-70
2023/03/20 18:22:50;;;;;;;2.22;1.85;;;5.70;99.90;;;;;;4821781;29;20145;-68
2023/03/20 18:25:17;;;;;;;2.25;1.58;;;5.60;99.90;;;;;;4832040;29;20046;-64
2023/03/20 18:27:44;;;;;;;2.20;1.10;;;5.60;99.90;;;;;;4827782;29;20277;-65
2023/03/20 18:30:17;;;;;;;1.75;1.38;;;5.50;99.90;;;;;;4828613;29;20053;-70
2023/03/20 18:32:44;;;;;;;1.65;1.55;;;5.40;99.90;;;;;;4824733;29;20054;-65
2023/03/20 18:35:12;;;;;;;1.35;1.20;;;5.40;99.90;;;;;;4828852;29;20058;-63
2023/03/20 18:37:40;;;;;;;1.92;1.83;;;5.30;99.90;;;;;;4845118;29;20387;-63
2023/03/20 18:40:28;;;;;;;1.52;1.40;;;5.30;99.90;;;;;;4845283;29;20053;-65
2023/03/20 18:42:56;;;;;;;1.40;1.30;;;5.20;99.90;;;;;;4841958;29;20414;-66
2023/03/20 18:45:25;;;;;;;2.08;1.27;;;5.20;99.90;;;;;;4845192;29;20049;-67
2023/03/20 18:47:53;;;;;;;3.40;1.25;;;5.10;99.90;;;;;;4842956;29;20792;-64
2023/03/20 18:50:26;;;;;;;1.80;1.10;;;5.10;99.90;;;;;;4844796;29;20056;-63
2023/03/20 18:52:55;;;;;;;1.55;1.42;;;5.00;99.90;;;;;;4840530;29;20068;-64
2023/03/20 18:55:24;;;;;;;1.40;1.02;;;5.00;99.90;;;;;;4848689;29;20065;-65
2023/03/20 18:57:52;;;;;;;1.35;1.17;;;5.00;99.90;;;;;;4841279;29;20053;-64
2023/03/20 19:00:28;;;;;;;1.35;1.25;;;5.00;99.90;;;;;;4844231;29;20084;-66
2023/03/20 19:02:56;;;;;;;1.23;1.13;;;5.10;99.90;;;;;;4838785;29;20057;-68
2023/03/20 19:05:25;;;;;;;1.90;1.10;;;5.10;99.90;;;;;;4847128;29;20392;-68
2023/03/20 19:07:52;;;;;;;1.73;0.82;;;5.10;99.90;;;;;;4845071;29;20053;-65
2023/03/20 19:10:25;;;;;;;1.80;1.48;;;5.10;99.90;;;;;;4841437;29;20356;-64
2023/03/20 19:12:52;;;;;;;1.33;1.23;;;5.10;99.90;;;;;;4842758;29;20509;-65
2023/03/20 19:15:19;;;;;;;1.00;0.90;;;5.10;99.90;;;;;;4839377;29;20136;-63
2023/03/20 19:17:47;;;;;;;2.45;1.27;;;5.20;99.90;;;;;;4844275;29;20166;-67
2023/03/20 19:20:39;;;;;;;1.75;1.55;;;5.10;99.90;;;;;;4839065;29;20231;-67
2023/03/20 19:23:08;;;;;;;1.42;1.17;;;5.10;99.90;;;;;;4838551;29;20084;-65
2023/03/20 19:25:36;;;;;;;1.77;1.02;;;5.10;99.90;;;;;;4855578;29;20475;-64
2023/03/20 19:28:04;;;;;;;1.10;1.00;;;5.00;99.90;;;;;;4841195;29;20445;-66
2023/03/20 19:30:31;;;;;;;1.33;0.90;;;5.00;99.90;;;;;;4839163;29;20054;-64
2023/03/20 19:32:58;;;;;;;1.08;0.93;;;5.00;99.90;;;;;;4843688;29;20317;-63
2023/03/20 19:35:27;;;;;;;3.90;2.95;;;5.00;99.90;;;;;;4846059;29;20081;-66
2023/03/20 19:38:19;;;;;;;1.85;1.70;;;5.00;99.90;;;;;;4845653;29;20068;-64
2023/03/20 19:40:51;;;;;;;1.60;1.50;;;5.00;99.90;;;;;;4842233;29;20101;-66
2023/03/20 19:43:20;;;;;;;1.50;1.40;;;5.00;99.90;;;;;;4840723;29;20051;-65
2023/03/20 19:45:50;;;;;;;1.90;1.48;;;5.00;99.90;;;;;;4846832;29;20075;-69
2023/03/20 19:48:22;;;;;;;3.25;1.60;;;5.00;99.90;;;;;;4843355;29;20057;-63
2023/03/20 19:50:49;;;;;;;1.77;1.50;;;4.90;99.90;;;;;;4837158;29;20081;-65
2023/03/20 19:53:20;;;;;;;1.83;1.50;;;4.90;99.90;;;;;;4847509;29;20081;-67
2023/03/20 19:55:47;;;;;;;1.58;1.20;;;4.90;99.90;;;;;;4846119;29;20117;-65
2023/03/20 19:58:14;;;;;;;2.30;1.25;;;4.80;99.90;;;;;;4841278;29;20108;-66
2023/03/20 20:00:42;;;;;;;2.42;1.70;;;4.80;99.90;;;;;;4842835;29;20149;-63
2023/03/20 20:03:29;;;;;;;3.13;2.55;;;4.90;99.90;;;;;;4845825;29;20109;-65
2023/03/20 20:05:56;;;;;;;2.70;1.83;;;4.80;99.90;;;;;;4840980;29;20113;-68
2023/03/20 20:08:23;;;;;;;3.17;1.83;;;4.70;99.90;;;;;;4845293;29;20052;-65
2023/03/20 20:11:14;;;;;;;4.15;2.17;;;4.70;99.90;;;;;;4842671;29;20069;-63
2023/03/20 20:13:41;;;;;;;5.05;2.75;;;4.60;99.90;;;;;;4845167;29;20057;-69
2023/03/20 20:16:28;;;;;;;3.38;2.60;;;4.60;99.90;;;;;;4840061;29;20137;-65
2023/03/20 20:18:55;;;;;;;3.33;2.90;;;4.60;99.90;;;;;;4840891;29;20046;-66
2023/03/20 20:21:22;;;;;;;3.85;2.78;;;4.50;99.90;;;;;;4838187;29;20508;-66
2023/03/20 20:24:09;;;;;;;4.07;2.85;;;4.40;99.90;;;;;;4844030;29;20061;-62
2023/03/20 20:26:36;;;;;;;4.97;2.88;;;4.30;99.90;;;;;;4842638;29;20056;-65
2023/03/20 20:29:13;;;;;;;2.45;2.25;;;4.30;99.90;;;;;;4837722;29;20614;-63
2023/03/20 20:31:40;;;;;;;2.75;2.55;;;4.30;99.90;;;;;;4847619;29;20057;-65
2023/03/20 20:34:07;;;;;;;2.10;2.00;;;4.20;99.90;;;;;;4841063;29;20057;-67
2023/03/20 20:36:54;;;;;;;2.70;2.47;;;4.20;99.90;;;;;;4841423;29;20478;-65
2023/03/20 20:39:41;;;;;;;2.58;1.88;;;4.10;99.90;;;;;;4843948;29;20050;-65
2023/03/20 20:42:07;;;;;;;2.00;1.70;;;4.00;99.90;;;;;;4847754;29;20136;-67
2023/03/20 20:44:34;;;;;;;1.33;1.20;;;4.00;99.90;;;;;;4841796;29;20053;-65
2023/03/20 20:47:01;;;;;;;2.22;1.30;;;3.90;99.90;;;;;;4846654;29;20050;-67
2023/03/20 20:49:28;;;;;;;2.72;1.67;;;3.80;99.90;;;;;;4849977;29;20053;-66
2023/03/20 20:51:57;;;;;;;2.30;1.60;;;3.80;99.90;;;;;;4844626;29;20149;-66
2023/03/20 20:54:25;;;;;;;0.80;0.70;;;3.80;99.90;;;;;;4850730;29;20070;-64
2023/03/20 20:56:54;;;;;;;0.77;0.60;;;3.80;99.90;;;;;;4846369;29;20049;-65
2023/03/20 20:59:21;;;;;;;2.50;0.80;;;3.80;99.90;;;;;;4845248;29;20053;-69
2023/03/20 21:01:49;;;;;;;3.72;0.70;;;3.80;99.90;;;;;;4848142;29;20045;-68
2023/03/20 21:04:16;;;;;;;2.38;0.90;;;3.80;99.90;;;;;;4848602;29;20060;-66
2023/03/20 21:06:43;;;;;;;0.70;0.70;;;3.80;99.90;;;;;;4846153;29;20085;-66
2023/03/20 21:09:30;;;;;;;1.13;0.65;;;3.70;99.90;;;;;;4849237;29;20061;-71
2023/03/20 21:11:57;;;;;;;1.27;0.73;;;3.60;99.90;;;;;;4847598;29;20144;-66
2023/03/20 21:14:24;;;;;;;1.85;0.75;;;3.60;99.90;;;;;;4845712;29;20061;-65
2023/03/20 21:16:52;;;;;;;3.45;1.02;;;3.50;99.90;;;;;;4845423;29;20061;-66
2023/03/20 21:19:18;;;;;;;1.00;0.80;;;3.40;99.90;;;;;;4843518;29;20699;-70
2023/03/20 21:21:45;;;;;;;2.35;0.98;;;3.40;99.90;;;;;;4841170;29;20046;-68
2023/03/20 21:24:12;;;;;;;2.63;0.88;;;3.40;99.90;;;;;;4848200;29;20053;-67
2023/03/20 21:27:02;;;;;;;0.85;0.50;;;3.40;99.90;;;;;;4840183;29;20057;-66
2023/03/20 21:29:29;;;;;;;1.35;0.77;;;3.40;99.90;;;;;;4847097;29;20146;-69
2023/03/20 21:31:56;;;;;;;1.08;0.52;;;3.30;99.90;;;;;;4846868;29;20056;-65
2023/03/20 21:34:23;;;;;;;3.10;1.13;;;3.30;99.90;;;;;;4840790;29;20056;-66
2023/03/20 21:36:50;;;;;;;2.05;0.73;;;3.30;99.90;;;;;;4846339;29;21763;-70
2023/03/20 21:39:18;;;;;;;5.13;1.13;;;3.20;99.90;;;;;;4846466;29;20113;-68
2023/03/20 21:41:45;;;;;;;0.50;0.50;;;3.20;99.90;;;;;;4845730;29;20144;-65
2023/03/20 21:44:12;;;;;;;1.25;0.45;;;3.20;99.90;;;;;;4849946;29;20233;-64
2023/03/20 21:46:45;;;;;;;1.05;0.57;;;3.10;99.90;;;;;;4846559;29;20139;-69
2023/03/20 21:49:32;;;;;;;4.60;1.42;;;3.10;99.90;;;;;;4846018;29;20050;-65
2023/03/20 21:52:20;;;;;;;0.98;0.55;;;3.10;99.90;;;;;;4843443;29;20057;-66
2023/03/20 21:55:07;;;;;;;1.13;0.52;;;3.00;99.90;;;;;;4843889;29;20046;-69
2023/03/20 21:57:56;;;;;;;1.88;0.60;;;3.00;99.90;;;;;;4845851;29;20053;-67
2023/03/20 22:00:43;;;;;;;2.42;0.20;;;3.00;99.90;;;;;;4841162;29;20057;-63
2023/03/20 22:03:29;;;;;;;7.13;2.35;;;2.90;99.90;;;;;;4841120;29;20381;-66
2023/03/20 22:06:16;;;;;;;2.92;0.45;;;2.90;99.90;;;;;;4845309;29;20846;-67
2023/03/20 22:09:04;;;;;;;2.63;0.47;;;2.90;99.90;;;;;;4842129;29;20381;-66
2023/03/20 22:11:52;;;;;;;1.35;0.43;;;2.90;99.90;;;;;;4842757;29;20487;-65
2023/03/20 22:14:39;;;;;;;2.72;0.95;;;2.90;99.90;;;;;;4841528;29;20057;-65
2023/03/20 22:17:26;;;;;;;0.63;0.32;;;2.90;99.90;;;;;;4840205;29;20057;-66
2023/03/20 22:20:13;;;;;;;1.30;0.60;;;2.90;99.90;;;;;;4840998;29;20057;-67
2023/03/20 22:23:00;;;;;;;2.30;0.50;;;2.90;99.90;;;;;;4837788;29;20053;-63
2023/03/20 22:25:58;;;;;;;0.52;0.20;;;2.80;99.90;;;;;;4840008;29;20054;-65
2023/03/20 22:28:45;;;;;;;3.00;0.73;;;2.80;99.90;;;;;;4840102;29;20058;-66
2023/03/20 22:31:32;;;;;;;2.35;0.50;;;2.70;99.90;;;;;;4839521;29;20148;-65
2023/03/20 22:34:20;;;;;;;1.13;0.60;;;2.70;99.90;;;;;;4845838;29;20056;-67
2023/03/20 22:37:07;;;;;;;1.10;0.38;;;2.70;99.90;;;;;;4841504;29;20053;-70
2023/03/20 22:39:54;;;;;;;2.20;0.52;;;2.70;99.90;;;;;;4852884;29;20227;-63
2023/03/20 22:42:41;;;;;;;1.05;0.30;;;2.70;99.90;;;;;;4843465;29;20512;-65
2023/03/20 22:45:27;;;;;;;2.85;0.43;;;2.70;99.90;;;;;;4845751;29;20049;-64
2023/03/20 22:48:08;;;;;;;6.78;0.85;;;2.70;99.90;;;;;;4839566;29;20045;-63
2023/03/20 22:50:36;;;;;;;0.77;0.40;;;2.70;99.90;;;;;;4839076;29;20049;-65
2023/03/20 22:53:03;;;;;;;4.97;0.85;;;2.60;99.90;;;;;;4845100;29;20201;-65
2023/03/20 22:55:31;;;;;;;1.48;0.40;;;2.60;99.90;;;;;;4843842;29;20053;-65
2023/03/20 22:57:58;;;;;;;3.20;0.80;;;2.60;99.90;;;;;;4841091;29;20102;-68
2023/03/20 23:00:33;;;;;;;1.13;0.40;;;2.50;99.90;;;;;;4837012;29;20057;-64
2023/03/20 23:03:01;;;;;;;3.65;0.60;;;2.50;99.90;;;;;;4840073;29;20140;-69
2023/03/20 23:05:48;;;;;;;6.50;1.13;;;2.40;99.90;;;;;;4836421;29;20045;-66
2023/03/20 23:08:15;;;;;;;4.10;1.17;;;2.40;99.90;;;;;;4845183;29;20447;-65
2023/03/20 23:10:44;;;;;;;2.55;0.65;;;2.40;99.90;;;;;;4843997;29;20081;-64
2023/03/20 23:13:11;;;;;;;1.05;0.60;;;2.40;99.90;;;;;;4842852;29;20068;-66
2023/03/20 23:15:38;;;;;;;0.68;0.50;;;2.40;99.90;;;;;;4846417;29;20060;-65
2023/03/20 23:18:05;;;;;;;2.53;0.68;;;2.40;99.90;;;;;;4842775;29;20053;-66
2023/03/20 23:20:32;;;;;;;2.35;0.70;;;2.50;99.90;;;;;;4837223;29;20049;-66
2023/03/20 23:22:59;;;;;;;0.88;0.55;;;2.40;99.90;;;;;;4839914;29;20065;-65
2023/03/20 23:25:26;;;;;;;2.15;0.55;;;2.40;99.90;;;;;;4845238;29;20149;-66
2023/03/20 23:28:06;;;;;;;9.68;1.90;;;2.40;99.90;;;;;;4842130;29;20058;-64
2023/03/20 23:30:33;;;;;;;2.10;0.40;;;2.30;99.90;;;;;;4846263;29;20045;-64
2023/03/20 23:33:14;;;;;;;1.15;0.50;;;2.30;99.90;;;;;;4855754;29;20132;-64
2023/03/20 23:35:41;;;;;;;0.50;0.50;;;2.30;99.90;;;;;;4846047;29;20061;-66
2023/03/20 23:38:08;;;;;;;2.83;1.00;;;2.30;99.90;;;;;;4843757;29;20113;-66
2023/03/20 23:40:35;;;;;;;2.08;0.40;;;2.30;99.90;;;;;;4845428;29;20057;-67
2023/03/20 23:43:02;;;;;;;2.92;0.98;;;2.20;99.90;;;;;;4847244;29;20448;-65
2023/03/20 23:45:29;;;;;;;1.58;0.55;;;2.20;99.90;;;;;;4844263;29;20053;-65
2023/03/20 23:47:56;;;;;;;3.60;0.50;;;2.10;99.90;;;;;;4837290;29;20138;-63
2023/03/20 23:50:23;;;;;;;2.10;0.35;;;2.10;99.90;;;;;;4841639;29;20041;-67
2023/03/20 23:53:02;;;;;;;1.30;0.70;;;2.10;99.90;;;;;;4837846;29;20149;-65
2023/03/20 23:55:47;;;;;;;3.00;1.00;;;2.00;99.90;;;;;;4842979;29;20053;-67
2023/03/20 23:58:14;;;;;;;1.83;0.40;;;2.00;99.90;;;;;;4842759;29;20803;-65
